Time;durP1;ratioP1;P1;durP2;ratioP2;P2;SDS_P1;SDS_P2;PMS_P1;PMS_P2;Temp;Humidity;BMP_temperature;BMP_pressure;BME280_temperature;BME280_humidity;BME280_pressure;Samples;Min_cycle;Max_cycle;Signal;HPM_P1;HPM_P2
2022/04/14 00:03:29;;;;;;;6.38;2.42;;;15.90;99.70;;;;;;10326586;28;20092;-87
2022/04/14 00:08:30;;;;;;;6.78;2.35;;;15.90;99.90;;;;;;10315464;28;20133;-87
2022/04/14 00:13:32;;;;;;;7.03;2.97;;;15.80;99.90;;;;;;10307071;28;20133;-87
2022/04/14 00:18:34;;;;;;;9.90;2.70;;;15.80;99.90;;;;;;10329349;28;20046;-87
2022/04/14 00:23:36;;;;;;;4.72;1.85;;;15.80;99.90;;;;;;10311451;28;20136;-87
2022/04/14 00:28:38;;;;;;;9.18;2.38;;;15.70;99.90;;;;;;10331749;28;20058;-87
2022/04/14 00:33:40;;;;;;;6.53;3.00;;;15.70;99.90;;;;;;10336263;28;20046;-87
2022/04/14 00:38:42;;;;;;;9.68;3.35;;;15.70;99.90;;;;;;10311234;28;20049;-87
2022/04/14 00:43:44;;;;;;;4.55;2.58;;;15.70;99.90;;;;;;10332519;28;20054;-87
2022/04/14 00:48:46;;;;;;;8.07;2.47;;;15.60;99.90;;;;;;10327613;28;20062;-87
2022/04/14 00:53:49;;;;;;;8.32;3.05;;;15.70;99.90;;;;;;10335893;28;20054;-87
2022/04/14 00:58:50;;;;;;;8.60;3.03;;;15.60;99.90;;;;;;10329740;28;20121;-87
2022/04/14 01:03:53;;;;;;;10.43;2.97;;;15.60;99.90;;;;;;10333805;28;20401;-88
2022/04/14 01:14:37;;;;;;;11.90;2.83;;;15.60;99.90;;;;;;10323262;28;20145;-87
2022/04/14 01:19:39;;;;;;;7.15;3.05;;;15.60;99.90;;;;;;10331776;28;20081;-87
2022/04/14 01:24:42;;;;;;;5.57;3.28;;;15.50;99.90;;;;;;10319602;28;20500;-86
2022/04/14 01:29:46;;;;;;;8.85;3.95;;;15.40;99.90;;;;;;10309464;28;20065;-86
2022/04/14 01:34:49;;;;;;;6.32;3.17;;;15.40;99.90;;;;;;10319332;28;20135;-86
2022/04/14 01:39:51;;;;;;;9.00;3.58;;;15.30;99.90;;;;;;10314800;28;20113;-87
2022/04/14 01:44:53;;;;;;;7.70;3.35;;;15.20;99.90;;;;;;10320008;28;20038;-87
2022/04/14 01:49:54;;;;;;;7.97;4.13;;;15.20;99.90;;;;;;10328988;28;20046;-86
2022/04/14 01:54:56;;;;;;;6.82;3.28;;;15.10;99.90;;;;;;10333032;28;20045;-86
2022/04/14 01:59:59;;;;;;;8.13;3.55;;;15.10;99.90;;;;;;10338243;28;20556;-87
2022/04/14 02:05:01;;;;;;;5.68;3.22;;;15.00;99.90;;;;;;10317263;28;20058;-87
2022/04/14 02:10:04;;;;;;;9.32;3.30;;;14.90;99.90;;;;;;10325853;28;20050;-86
2022/04/14 02:15:06;;;;;;;9.40;3.65;;;14.90;99.90;;;;;;10323546;28;20050;-86
2022/04/14 02:20:09;;;;;;;8.38;3.67;;;14.80;99.90;;;;;;10322108;28;20055;-86
2022/04/14 02:25:10;;;;;;;8.57;4.65;;;14.80;99.90;;;;;;10319302;28;20771;-86
2022/04/14 02:30:12;;;;;;;7.28;3.45;;;14.70;99.90;;;;;;10335753;28;20050;-86
2022/04/14 02:35:14;;;;;;;7.65;3.30;;;14.70;99.90;;;;;;10334998;28;20149;-86
2022/04/14 02:40:16;;;;;;;9.45;3.67;;;14.70;99.90;;;;;;10333947;28;20061;-86
2022/04/14 02:45:18;;;;;;;9.63;3.75;;;14.70;99.90;;;;;;10307551;28;20058;-86
2022/04/14 02:50:21;;;;;;;8.32;3.22;;;14.60;99.90;;;;;;10315411;28;20053;-86
2022/04/14 02:55:23;;;;;;;9.30;4.45;;;14.60;99.90;;;;;;10327474;28;20053;-86
2022/04/14 03:00:25;;;;;;;9.45;4.55;;;14.60;99.90;;;;;;10325515;28;20069;-86
2022/04/14 03:05:27;;;;;;;5.45;3.85;;;14.50;99.90;;;;;;10319446;28;20043;-86
2022/04/14 03:10:28;;;;;;;8.55;3.85;;;14.50;99.90;;;;;;10314717;28;20050;-86
2022/04/14 03:15:30;;;;;;;6.55;4.32;;;14.40;99.90;;;;;;10323008;28;20606;-86
2022/04/14 03:20:32;;;;;;;5.68;4.15;;;14.40;99.90;;;;;;10308424;28;20042;-86
2022/04/14 03:25:34;;;;;;;14.80;5.22;;;14.30;99.90;;;;;;10307985;28;20046;-86
2022/04/14 03:30:36;;;;;;;12.38;5.65;;;14.30;99.90;;;;;;10324361;28;20089;-86
2022/04/14 03:35:37;;;;;;;11.70;6.30;;;14.20;99.90;;;;;;10319561;28;20054;-86
2022/04/14 03:40:39;;;;;;;13.30;6.72;;;14.20;99.90;;;;;;10316623;28;20087;-86
2022/04/14 03:45:41;;;;;;;14.35;8.27;;;14.20;99.90;;;;;;10318031;28;20046;-86
2022/04/14 03:50:43;;;;;;;15.07;8.13;;;14.20;99.90;;;;;;10319462;28;20046;-86
2022/04/14 03:55:48;;;;;;;18.23;8.48;;;14.30;99.90;;;;;;10300633;28;20050;-86
2022/04/14 04:00:49;;;;;;;15.30;7.97;;;14.30;99.90;;;;;;10319857;28;20050;-86
2022/04/14 04:05:52;;;;;;;20.67;8.30;;;14.30;99.90;;;;;;10315245;28;20104;-86
2022/04/14 04:10:53;;;;;;;19.25;9.48;;;14.30;99.90;;;;;;10312941;28;20058;-86
2022/04/14 04:15:55;;;;;;;17.85;7.75;;;14.30;99.90;;;;;;10307053;28;20065;-86
2022/04/14 04:20:57;;;;;;;16.83;7.70;;;14.30;99.90;;;;;;10314966;28;20057;-86
2022/04/14 04:25:59;;;;;;;13.13;7.82;;;14.30;99.90;;;;;;10297718;28;20129;-86
2022/04/14 04:31:00;;;;;;;17.00;7.68;;;14.30;99.90;;;;;;10302280;28;20050;-86
2022/04/14 04:36:02;;;;;;;17.73;8.20;;;14.30;99.90;;;;;;10315829;28;20054;-86
2022/04/14 04:41:05;;;;;;;14.45;7.88;;;14.40;99.90;;;;;;10311919;28;20356;-86
2022/04/14 04:46:08;;;;;;;22.80;8.75;;;14.30;99.90;;;;;;10310972;28;20054;-86
2022/04/14 04:51:10;;;;;;;15.65;8.15;;;14.40;99.90;;;;;;10291260;28;20487;-86
2022/04/14 04:56:12;;;;;;;16.38;8.25;;;14.30;99.90;;;;;;10334353;28;20049;-86
2022/04/14 05:01:14;;;;;;;18.48;7.80;;;14.30;99.90;;;;;;10291385;28;20051;-86
2022/04/14 05:06:16;;;;;;;16.48;7.53;;;14.30;99.90;;;;;;10304903;28;20570;-86
2022/04/14 05:11:18;;;;;;;19.98;8.52;;;14.30;99.90;;;;;;10308927;28;20518;-86
2022/04/14 05:16:20;;;;;;;16.58;7.47;;;14.30;99.90;;;;;;10302589;28;20053;-86
2022/04/14 05:21:22;;;;;;;20.30;8.15;;;14.30;99.90;;;;;;10305596;28;20054;-86
2022/04/14 05:26:24;;;;;;;14.07;8.35;;;14.30;99.90;;;;;;10314953;28;20057;-86
2022/04/14 05:31:26;;;;;;;17.38;7.93;;;14.30;99.90;;;;;;10332175;28;20057;-87
2022/04/14 05:36:28;;;;;;;18.42;6.70;;;14.40;99.90;;;;;;10327424;28;20467;-86
2022/04/14 05:41:30;;;;;;;12.10;6.22;;;14.40;99.90;;;;;;10319185;28;20074;-86
2022/04/14 05:46:32;;;;;;;13.20;7.25;;;14.40;99.90;;;;;;10302248;28;20054;-86
2022/04/14 05:51:34;;;;;;;16.67;7.18;;;14.40;99.90;;;;;;10321982;28;20041;-86
2022/04/14 05:56:36;;;;;;;16.35;6.15;;;14.50;99.90;;;;;;10324230;28;20045;-86
2022/04/14 06:01:37;;;;;;;13.40;5.35;;;14.60;99.90;;;;;;10334147;28;20058;-87
2022/04/14 06:06:40;;;;;;;15.38;6.25;;;14.60;99.90;;;;;;10300323;28;20069;-87
2022/04/14 06:11:42;;;;;;;12.98;5.80;;;14.70;99.90;;;;;;10311982;28;20059;-87
2022/04/14 06:16:44;;;;;;;9.52;5.53;;;14.70;99.90;;;;;;10325077;28;20052;-87
2022/04/14 06:21:46;;;;;;;12.63;5.70;;;14.80;99.90;;;;;;10320364;28;20051;-87
2022/04/14 06:26:48;;;;;;;11.80;6.13;;;14.80;99.90;;;;;;10305318;28;20077;-87
2022/04/14 06:31:50;;;;;;;13.60;6.57;;;14.90;99.90;;;;;;10301214;28;20810;-87
2022/04/14 06:36:52;;;;;;;14.02;7.45;;;15.00;99.90;;;;;;10318848;28;20856;-87
2022/04/14 06:41:54;;;;;;;15.35;6.80;;;15.10;99.90;;;;;;10317547;28;20050;-87
2022/04/14 06:46:56;;;;;;;14.15;6.32;;;15.10;99.90;;;;;;10306502;28;20069;-87
2022/04/14 06:51:58;;;;;;;15.25;6.63;;;15.20;99.90;;;;;;10307437;28;20064;-87
2022/04/14 06:57:00;;;;;;;14.38;6.82;;;15.20;99.90;;;;;;10297967;28;20054;-87
2022/04/14 07:02:02;;;;;;;14.75;7.00;;;15.20;99.90;;;;;;10320915;28;20069;-87
2022/04/14 07:07:04;;;;;;;13.25;6.30;;;15.20;99.90;;;;;;10311396;28;20046;-87
2022/04/14 07:12:06;;;;;;;13.63;6.63;;;15.20;99.90;;;;;;10310583;28;20046;-87
2022/04/14 07:17:10;;;;;;;12.23;5.00;;;15.20;99.90;;;;;;10321003;28;20700;-87
2022/04/14 07:22:15;;;;;;;14.80;5.40;;;15.30;99.90;;;;;;10305952;28;20124;-86
2022/04/14 07:27:19;;;;;;;10.40;4.70;;;15.30;99.90;;;;;;10304814;28;20058;-87
2022/04/14 07:32:21;;;;;;;11.15;4.78;;;15.40;99.90;;;;;;10321220;28;20056;-87
2022/04/14 07:37:23;;;;;;;12.60;5.00;;;15.40;99.90;;;;;;10320192;28;20060;-87
2022/04/14 07:42:38;;;;;;;10.23;4.40;;;15.50;99.90;;;;;;10314036;28;20121;-87
2022/04/14 07:47:44;;;;;;;11.02;5.15;;;15.60;99.90;;;;;;10314191;28;20519;-86
2022/04/14 07:52:56;;;;;;;10.23;4.93;;;15.70;99.90;;;;;;10314349;28;20050;-86
2022/04/14 07:58:06;;;;;;;12.00;5.05;;;15.80;99.90;;;;;;10325241;28;20054;-86
2022/04/14 08:03:09;;;;;;;10.75;4.82;;;15.80;99.90;;;;;;10315391;28;20055;-86
2022/04/14 08:08:16;;;;;;;13.00;5.70;;;15.90;99.90;;;;;;10334726;28;20109;-86
2022/04/14 08:13:18;;;;;;;;;;;15.90;99.70;;;;;;10312425;28;20168;-87
2022/04/14 08:18:20;;;;;;;16.20;4.82;;;16.00;99.50;;;;;;10298059;28;20031;-86
2022/04/14 08:23:22;;;;;;;10.85;4.25;;;15.90;98.60;;;;;;10307562;28;20038;-86
2022/04/14 08:28:24;;;;;;;10.20;4.63;;;16.10;98.80;;;;;;10332160;28;20051;-86
2022/04/14 08:33:26;;;;;;;9.80;3.80;;;16.00;98.80;;;;;;10323854;28;20057;-86
2022/04/14 08:38:28;;;;;;;6.70;4.07;;;16.10;98.70;;;;;;10305010;28;20038;-86
2022/04/14 08:43:34;;;;;;;11.60;4.57;;;16.10;99.80;;;;;;10310661;28;20424;-86
2022/04/14 08:48:37;;;;;;;9.48;3.47;;;16.20;98.70;;;;;;10320001;28;20644;-86
2022/04/14 08:53:40;;;;;;;8.65;3.17;;;16.20;98.00;;;;;;10311237;28;20061;-86
2022/04/14 08:58:43;;;;;;;8.95;3.47;;;16.30;96.80;;;;;;10304177;28;20489;-86
2022/04/14 09:03:45;;;;;;;6.07;2.75;;;16.40;95.70;;;;;;10318961;28;20050;-86
2022/04/14 09:08:48;;;;;;;4.97;2.63;;;16.50;94.60;;;;;;10322355;28;20046;-87
2022/04/14 09:13:50;;;;;;;5.45;2.25;;;16.50;94.90;;;;;;10330563;28;20405;-86
2022/04/14 09:18:53;;;;;;;4.05;1.92;;;16.70;94.70;;;;;;10319433;28;20119;-86
2022/04/14 09:23:55;;;;;;;2.85;1.60;;;16.80;93.20;;;;;;10328369;28;20065;-87
2022/04/14 09:29:10;;;;;;;3.55;1.63;;;16.90;92.70;;;;;;10319938;28;20435;-87
2022/04/14 09:34:15;;;;;;;5.65;1.45;;;16.80;91.70;;;;;;10322096;28;20528;-89
2022/04/14 09:39:17;;;;;;;4.30;1.30;;;16.80;92.90;;;;;;10338538;28;20054;-87
2022/04/14 09:44:19;;;;;;;4.43;1.52;;;16.70;93.20;;;;;;10326386;28;20046;-87
2022/04/14 09:49:23;;;;;;;4.57;1.58;;;16.50;95.80;;;;;;10294503;28;20054;-87
2022/04/14 09:54:29;;;;;;;3.55;1.48;;;16.40;99.20;;;;;;10310964;28;20378;-87
2022/04/14 09:59:31;;;;;;;6.78;2.22;;;16.40;99.90;;;;;;10324387;28;20139;-87
2022/04/14 10:04:35;;;;;;;4.65;2.83;;;16.30;99.90;;;;;;10325509;28;20058;-87
2022/04/14 10:09:48;;;;;;;7.97;3.13;;;16.10;99.90;;;;;;10312468;28;20425;-87
2022/04/14 10:15:05;;;;;;;7.50;3.70;;;16.10;99.90;;;;;;10314834;28;20046;-87
2022/04/14 10:20:09;;;;;;;9.18;3.75;;;16.10;99.90;;;;;;10318289;28;20138;-88
2022/04/14 10:25:13;;;;;;;5.22;2.72;;;16.00;99.90;;;;;;10321539;28;20060;-87
2022/04/14 10:30:16;;;;;;;8.48;3.05;;;16.10;99.90;;;;;;10326423;28;20060;-87
2022/04/14 10:35:18;;;;;;;6.18;3.42;;;16.10;99.90;;;;;;10313939;28;20073;-87
2022/04/14 10:40:21;;;;;;;9.80;3.53;;;16.30;99.90;;;;;;10317853;28;20042;-87
2022/04/14 10:45:23;;;;;;;6.38;3.10;;;16.40;99.90;;;;;;10303837;28;20080;-87
2022/04/14 10:50:32;;;;;;;8.65;3.08;;;16.40;99.90;;;;;;10321941;28;20107;-87
2022/04/14 10:55:47;;;;;;;7.20;2.25;;;16.60;99.60;;;;;;10319974;28;20045;-87
2022/04/14 11:00:49;;;;;;;6.88;2.33;;;16.80;98.10;;;;;;10329631;28;20440;-87
2022/04/14 11:05:51;;;;;;;7.25;2.40;;;17.00;97.10;;;;;;10330958;28;20050;-87
2022/04/14 11:11:12;;;;;;;4.97;2.55;;;17.10;96.30;;;;;;10325284;28;20053;-87
2022/04/14 11:16:39;;;;;;;5.07;2.20;;;17.10;95.10;;;;;;10329004;28;20141;-87
2022/04/14 11:27:22;;;;;;;5.50;1.80;;;17.50;93.20;;;;;;10319226;28;20050;-87
2022/04/14 11:32:38;;;;;;;5.43;2.53;;;17.40;91.30;;;;;;10328919;28;20515;-87
2022/04/14 11:38:00;;;;;;;6.47;2.08;;;17.70;91.10;;;;;;10316816;28;20065;-87
2022/04/14 11:43:02;;;;;;;3.60;2.10;;;17.80;90.20;;;;;;10318661;28;20046;-87
2022/04/14 11:48:05;;;;;;;4.78;1.85;;;17.90;89.50;;;;;;10310731;28;20065;-87
2022/04/14 11:53:07;;;;;;;5.05;2.28;;;18.20;88.80;;;;;;10318893;28;20050;-87
2022/04/14 11:58:11;;;;;;;3.20;1.83;;;18.40;87.90;;;;;;10301616;28;20129;-87
2022/04/14 12:03:14;;;;;;;2.25;1.30;;;18.60;84.50;;;;;;10303704;28;20488;-87
2022/04/14 12:08:17;;;;;;;8.68;1.55;;;18.60;80.20;;;;;;10314549;28;20109;-87
2022/04/14 12:13:22;;;;;;;4.63;1.35;;;18.50;82.80;;;;;;10325440;28;20054;-87
2022/04/14 12:18:24;;;;;;;3.05;0.80;;;18.40;78.00;;;;;;10299194;28;20058;-87
2022/04/14 12:23:25;;;;;;;3.15;1.02;;;18.50;76.70;;;;;;10313311;28;20075;-87
2022/04/14 12:28:27;;;;;;;2.83;0.82;;;18.70;77.70;;;;;;10288340;28;20438;-87
2022/04/14 12:33:30;;;;;;;3.28;0.60;;;18.90;76.00;;;;;;10287599;28;20508;-87
2022/04/14 12:38:45;;;;;;;2.47;0.90;;;19.20;74.00;;;;;;10327051;28;20132;-87
2022/04/14 12:43:48;;;;;;;1.33;0.73;;;19.40;73.30;;;;;;10320902;28;20481;-88
2022/04/14 12:49:07;;;;;;;3.10;0.90;;;19.40;72.10;;;;;;10326695;28;20046;-88
2022/04/14 12:54:24;;;;;;;1.88;0.80;;;19.40;71.70;;;;;;10330244;28;20053;-88
2022/04/14 12:59:27;;;;;;;2.05;0.70;;;19.50;71.40;;;;;;10326416;28;20042;-88
2022/04/14 13:04:35;;;;;;;1.95;0.80;;;19.50;71.70;;;;;;10332608;28;20049;-88
2022/04/14 13:09:38;;;;;;;2.75;0.80;;;19.50;72.20;;;;;;10341381;28;20045;-88
2022/04/14 13:14:47;;;;;;;3.28;0.60;;;19.60;72.70;;;;;;10320842;28;20077;-87
2022/04/14 13:20:09;;;;;;;3.45;0.70;;;19.50;70.00;;;;;;10336349;28;20145;-86
2022/04/14 13:25:13;;;;;;;2.67;0.57;;;19.40;70.00;;;;;;10338722;28;20061;-86
2022/04/14 13:30:15;;;;;;;5.30;0.90;;;19.50;71.20;;;;;;10330700;28;20072;-87
2022/04/14 13:35:17;;;;;;;3.15;0.80;;;19.50;70.90;;;;;;10327335;28;20564;-87
2022/04/14 13:40:19;;;;;;;2.55;0.75;;;19.30;72.50;;;;;;10306148;28;20074;-87
2022/04/14 13:45:21;;;;;;;4.35;1.20;;;19.00;72.90;;;;;;10337208;28;20049;-88
2022/04/14 13:50:24;;;;;;;3.10;0.90;;;18.80;74.70;;;;;;10328010;28;20058;-87
2022/04/14 13:55:26;;;;;;;4.85;1.50;;;18.60;76.60;;;;;;10328550;28;20734;-86
2022/04/14 14:00:27;;;;;;;3.97;1.00;;;18.60;76.70;;;;;;10340596;28;20514;-88
2022/04/14 14:05:30;;;;;;;3.70;1.30;;;18.50;76.90;;;;;;10323234;28;20089;-87
2022/04/14 14:10:34;;;;;;;3.35;1.42;;;18.40;77.30;;;;;;10338800;28;20072;-87
2022/04/14 14:15:36;;;;;;;3.92;1.33;;;18.30;78.60;;;;;;10303073;28;20145;-87
2022/04/14 14:20:38;;;;;;;3.03;1.63;;;18.20;78.70;;;;;;10338605;28;20091;-87
2022/04/14 14:25:40;;;;;;;2.95;0.95;;;18.20;79.30;;;;;;10304359;28;20046;-87
2022/04/14 14:30:42;;;;;;;2.17;1.10;;;18.30;80.90;;;;;;10334428;28;20415;-87
2022/04/14 14:35:44;;;;;;;3.30;1.08;;;18.30;78.80;;;;;;10326997;28;20045;-87
2022/04/14 14:40:46;;;;;;;2.20;1.10;;;18.60;78.20;;;;;;10351754;28;20042;-87
2022/04/14 14:45:48;;;;;;;1.35;0.80;;;18.80;77.70;;;;;;10338005;28;20076;-87
2022/04/14 14:50:49;;;;;;;2.47;0.73;;;19.20;75.60;;;;;;10335860;28;20051;-88
2022/04/14 14:55:51;;;;;;;4.97;0.60;;;19.50;72.00;;;;;;10341974;28;20045;-88
2022/04/14 15:00:53;;;;;;;1.23;0.63;;;19.80;69.70;;;;;;10336337;28;20062;-88
2022/04/14 15:05:56;;;;;;;1.05;0.65;;;19.90;69.80;;;;;;10319190;28;20413;-87
2022/04/14 15:10:58;;;;;;;4.25;0.77;;;19.80;72.40;;;;;;10346311;28;20049;-87
2022/04/14 15:16:00;;;;;;;4.65;0.73;;;19.60;73.20;;;;;;10320410;28;20077;-87
2022/04/14 15:21:02;;;;;;;2.25;0.88;;;19.60;72.20;;;;;;10337672;28;20050;-87
2022/04/14 15:26:04;;;;;;;1.98;0.90;;;19.70;72.30;;;;;;10324484;28;20073;-87
2022/04/14 15:31:07;;;;;;;3.30;0.85;;;19.60;72.50;;;;;;10327522;28;20051;-87
2022/04/14 15:36:13;;;;;;;4.10;1.00;;;19.50;73.20;;;;;;10334563;28;21405;-87
2022/04/14 15:41:15;;;;;;;2.38;1.00;;;19.40;73.30;;;;;;10298763;28;20563;-87
2022/04/14 15:46:17;;;;;;;3.45;0.90;;;19.40;72.60;;;;;;10326634;28;20058;-88
2022/04/14 15:51:19;;;;;;;6.47;1.38;;;19.40;72.70;;;;;;10327855;28;20108;-89
2022/04/14 15:56:21;;;;;;;4.70;0.88;;;19.30;73.10;;;;;;10336104;28;20046;-88
2022/04/14 16:01:22;;;;;;;1.90;1.23;;;19.20;76.70;;;;;;10331464;28;20066;-88
2022/04/14 16:06:24;;;;;;;1.60;1.17;;;19.10;73.90;;;;;;10323717;28;20058;-88
2022/04/14 16:16:50;;;;;;;5.55;0.73;;;19.10;74.30;;;;;;10323136;28;20429;-88
2022/04/14 16:21:52;;;;;;;1.08;0.63;;;18.90;74.50;;;;;;10329524;28;20052;-87
2022/04/14 16:26:54;;;;;;;3.10;0.90;;;18.80;74.00;;;;;;10311704;28;20073;-87
2022/04/14 16:31:56;;;;;;;1.55;0.75;;;18.90;75.60;;;;;;10343852;28;20086;-87
2022/04/14 16:36:58;;;;;;;4.25;0.70;;;18.80;76.00;;;;;;10296294;28;20073;-87
2022/04/14 16:42:01;;;;;;;0.73;0.60;;;18.80;77.60;;;;;;10357581;28;20061;-88
2022/04/14 16:47:04;;;;;;;1.00;0.80;;;18.80;78.50;;;;;;10328394;28;20050;-87
2022/04/14 16:52:05;;;;;;;2.00;0.57;;;18.50;79.10;;;;;;10324777;28;20072;-86
2022/04/14 16:57:07;;;;;;;2.80;0.77;;;18.50;77.80;;;;;;10343835;28;20042;-88
2022/04/14 17:02:11;;;;;;;2.72;0.65;;;18.50;77.70;;;;;;10331873;28;20047;-87
2022/04/14 17:07:14;;;;;;;1.92;0.95;;;18.30;77.10;;;;;;10314440;28;20119;-87
2022/04/14 17:12:16;;;;;;;3.33;0.50;;;18.20;78.70;;;;;;10324782;28;20056;-87
2022/04/14 17:17:18;;;;;;;1.88;0.68;;;18.00;78.30;;;;;;10325263;28;20486;-89
2022/04/14 17:27:41;;;;;;;1.70;0.65;;;18.10;79.40;;;;;;10339833;28;20073;-87
2022/04/14 17:32:43;;;;;;;1.15;0.60;;;18.00;78.50;;;;;;10336810;28;20524;-87
2022/04/14 17:37:46;;;;;;;1.73;0.47;;;17.90;79.40;;;;;;10346360;28;20116;-87
2022/04/14 17:42:49;;;;;;;0.90;0.52;;;17.90;80.30;;;;;;10339160;28;20074;-89
2022/04/14 17:47:56;;;;;;;1.85;0.80;;;17.80;81.60;;;;;;10333964;28;20046;-88
2022/04/14 17:52:58;;;;;;;1.33;0.60;;;17.70;81.10;;;;;;10337714;28;20041;-87
2022/04/14 17:58:01;;;;;;;1.08;0.50;;;17.60;81.30;;;;;;10334245;28;20047;-87
2022/04/14 18:03:02;;;;;;;3.92;0.85;;;17.40;81.70;;;;;;10240232;28;20046;-88
2022/04/14 18:08:06;;;;;;;0.93;0.50;;;17.30;82.40;;;;;;10328944;28;20073;-88
2022/04/14 18:13:10;;;;;;;3.10;1.20;;;17.20;86.40;;;;;;10341008;28;20153;-88
2022/04/14 18:18:14;;;;;;;2.22;0.95;;;17.10;89.50;;;;;;10341645;28;20065;-88
2022/04/14 18:23:16;;;;;;;5.78;1.27;;;16.80;92.10;;;;;;10338802;28;20047;-88
2022/04/14 18:28:18;;;;;;;3.17;0.80;;;16.60;93.30;;;;;;10339611;28;20417;-88
2022/04/14 18:33:20;;;;;;;2.47;1.00;;;16.30;95.00;;;;;;10329149;28;20065;-87
2022/04/14 18:38:22;;;;;;;3.15;0.80;;;16.30;95.20;;;;;;10301299;28;20050;-87
2022/04/14 18:43:24;;;;;;;4.75;1.08;;;16.10;96.50;;;;;;10351262;28;20109;-87
2022/04/14 18:48:25;;;;;;;3.58;1.05;;;16.00;98.70;;;;;;10348910;28;20062;-87
2022/04/14 18:53:27;;;;;;;5.85;2.20;;;15.80;99.90;;;;;;10354957;28;20065;-88
2022/04/14 18:58:29;;;;;;;2.97;1.60;;;15.50;99.90;;;;;;10327840;28;20085;-88
2022/04/14 19:03:38;;;;;;;4.78;1.70;;;15.30;99.90;;;;;;10338484;28;20070;-88
2022/04/14 19:08:42;;;;;;;6.75;1.83;;;15.20;99.90;;;;;;10349895;28;20052;-88
2022/04/14 19:13:45;;;;;;;7.88;2.38;;;15.00;99.90;;;;;;10347464;28;20096;-87
2022/04/14 19:18:47;;;;;;;9.57;4.50;;;14.90;99.90;;;;;;10346143;28;20069;-87
2022/04/14 19:23:49;;;;;;;8.48;5.18;;;14.80;99.90;;;;;;10336224;28;20081;-88
2022/04/14 19:28:52;;;;;;;7.03;3.10;;;14.70;99.90;;;;;;10345272;28;20030;-87
2022/04/14 19:33:55;;;;;;;3.63;2.70;;;14.50;99.90;;;;;;10343048;28;20049;-88
2022/04/14 19:38:58;;;;;;;3.30;1.73;;;14.40;99.90;;;;;;10361472;28;20109;-88
2022/04/14 19:44:01;;;;;;;8.02;2.40;;;14.00;99.90;;;;;;10363755;28;20065;-87
2022/04/14 19:49:03;;;;;;;4.72;1.75;;;13.80;99.90;;;;;;10353264;28;20053;-88
2022/04/14 19:54:10;;;;;;;6.82;2.40;;;13.80;99.90;;;;;;10331478;28;20045;-88
2022/04/14 19:59:12;;;;;;;7.93;3.42;;;13.80;99.90;;;;;;10323603;28;20057;-87
2022/04/14 20:04:21;;;;;;;7.72;2.90;;;13.60;99.90;;;;;;9924569;28;20403;-87
2022/04/14 20:09:24;;;;;;;8.63;2.60;;;13.50;99.90;;;;;;10238370;28;20066;-87
2022/04/14 20:14:27;;;;;;;6.45;2.00;;;13.50;99.90;;;;;;10325712;28;20054;-87
2022/04/14 20:19:29;;;;;;;6.03;2.17;;;13.40;99.90;;;;;;10339276;28;20046;-87
2022/04/14 20:24:31;;;;;;;7.20;2.17;;;13.30;99.90;;;;;;10330317;28;20042;-87
2022/04/14 20:29:32;;;;;;;5.15;2.08;;;13.30;99.90;;;;;;10330104;28;20050;-87
2022/04/14 20:34:35;;;;;;;7.35;3.40;;;13.30;99.90;;;;;;10350060;28;20061;-87
2022/04/14 20:39:38;;;;;;;5.15;2.58;;;13.30;99.90;;;;;;10338580;28;20057;-87
2022/04/14 20:44:40;;;;;;;4.97;2.00;;;13.20;99.90;;;;;;10350429;28;20550;-87
2022/04/14 20:49:42;;;;;;;3.85;2.22;;;13.00;99.90;;;;;;10335876;28;20638;-87
2022/04/14 20:54:44;;;;;;;4.68;2.63;;;13.00;99.90;;;;;;10325790;28;20049;-88
2022/04/14 20:59:46;;;;;;;4.60;2.22;;;13.00;99.90;;;;;;10356877;28;20065;-87
2022/04/14 21:04:48;;;;;;;5.85;2.33;;;13.00;99.90;;;;;;10319817;28;20148;-87
2022/04/14 21:09:49;;;;;;;3.83;2.15;;;13.00;99.90;;;;;;10321680;28;20176;-87
2022/04/14 21:14:51;;;;;;;5.90;2.40;;;13.00;99.90;;;;;;10316971;28;20052;-87
2022/04/14 21:19:53;;;;;;;6.00;2.60;;;13.00;99.90;;;;;;10329759;28;20049;-87
2022/04/14 21:24:55;;;;;;;6.70;2.80;;;13.00;99.90;;;;;;10321182;28;20046;-88
2022/04/14 21:29:57;;;;;;;7.20;3.30;;;13.00;99.90;;;;;;10333740;28;20101;-88
2022/04/14 21:34:58;;;;;;;9.15;4.60;;;13.00;99.90;;;;;;10341682;28;20400;-87
2022/04/14 21:40:00;;;;;;;7.15;3.55;;;13.00;99.90;;;;;;10338335;28;20056;-87
2022/04/14 21:45:30;;;;;;;6.05;2.60;;;12.80;99.90;;;;;;10330759;28;20061;-87
2022/04/14 21:50:25;;;;;;;6.72;3.10;;;12.80;99.90;;;;;;10331529;28;20034;-87
2022/04/14 21:55:27;;;;;;;6.20;2.88;;;12.80;99.90;;;;;;10350729;28;20104;-87
2022/04/14 22:00:51;;;;;;;5.40;2.63;;;12.70;99.90;;;;;;10329638;28;20689;-87
2022/04/14 22:05:55;;;;;;;7.47;2.92;;;12.70;99.90;;;;;;10336737;28;20050;-87
2022/04/14 22:10:57;;;;;;;4.30;3.13;;;12.60;99.90;;;;;;10340328;28;20089;-88
2022/04/14 22:15:59;;;;;;;5.03;3.30;;;12.70;99.90;;;;;;10333200;28;20467;-88
2022/04/14 22:21:01;;;;;;;5.97;3.38;;;12.70;99.90;;;;;;10335140;28;20054;-87
2022/04/14 22:26:03;;;;;;;8.10;4.53;;;12.70;99.90;;;;;;10351155;28;20045;-87
2022/04/14 22:31:06;;;;;;;6.15;3.85;;;12.70;99.90;;;;;;10315474;28;20073;-87
2022/04/14 22:36:09;;;;;;;10.07;4.72;;;12.60;99.90;;;;;;10321725;28;20050;-87
2022/04/14 22:41:12;;;;;;;6.50;3.60;;;12.50;99.90;;;;;;10321477;28;20058;-87
2022/04/14 22:46:15;;;;;;;6.75;3.63;;;12.40;99.90;;;;;;10333131;28;20062;-87
2022/04/14 22:51:17;;;;;;;8.20;3.90;;;12.40;99.90;;;;;;10299618;28;20046;-87
2022/04/14 22:56:18;;;;;;;6.57;4.00;;;12.20;99.90;;;;;;10321202;28;20050;-88
2022/04/14 23:01:20;;;;;;;8.73;3.88;;;12.10;99.90;;;;;;10322192;28;20321;-88
2022/04/14 23:06:22;;;;;;;7.07;3.30;;;12.00;99.90;;;;;;10331600;28;20046;-87
2022/04/14 23:11:24;;;;;;;7.68;3.20;;;11.90;99.90;;;;;;10314276;28;20501;-87
2022/04/14 23:16:29;;;;;;;8.73;3.28;;;11.70;99.90;;;;;;10332763;28;20130;-88
2022/04/14 23:21:42;;;;;;;10.48;4.93;;;11.70;99.90;;;;;;10326526;28;20140;-87
2022/04/14 23:26:45;;;;;;;5.88;3.28;;;11.60;99.90;;;;;;10327003;28;20062;-87
2022/04/14 23:31:47;;;;;;;10.23;3.53;;;11.50;99.90;;;;;;10286846;28;20050;-88
2022/04/14 23:36:49;;;;;;;6.63;2.95;;;11.40;99.90;;;;;;10313539;28;20045;-87
2022/04/14 23:41:52;;;;;;;10.85;3.50;;;11.40;99.90;;;;;;10286031;28;20056;-87
2022/04/14 23:46:54;;;;;;;9.27;3.45;;;11.20;99.90;;;;;;10329090;28;20055;-87
2022/04/14 23:51:56;;;;;;;7.15;4.00;;;11.20;99.90;;;;;;10323119;28;20050;-87
2022/04/14 23:56:58;;;;;;;6.72;3.45;;;11.10;99.90;;;;;;10308185;28;20042;-87
